sensor_id;sensor_type;location;lat;lon;timestamp;temperature;humidity
2757;DHT22;1386;50.862;6.494;2024-03-07T00:00:36;7.30;99.90
2757;DHT22;1386;50.862;6.494;2024-03-07T00:03:12;7.30;99.90
2757;DHT22;1386;50.862;6.494;2024-03-07T00:05:48;7.20;99.90
2757;DHT22;1386;50.862;6.494;2024-03-07T00:08:21;7.20;99.90
2757;DHT22;1386;50.862;6.494;2024-03-07T00:11:05;7.20;99.90
2757;DHT22;1386;50.862;6.494;2024-03-07T00:13:35;7.10;99.90
2757;DHT22;1386;50.862;6.494;2024-03-07T00:16:12;7.10;99.90
2757;DHT22;1386;50.862;6.494;2024-03-07T00:18:46;7.10;99.90
2757;DHT22;1386;50.862;6.494;2024-03-07T00:21:29;7.10;99.90
2757;DHT22;1386;50.862;6.494;2024-03-07T00:23:58;7.00;99.90
2757;DHT22;1386;50.862;6.494;2024-03-07T00:26:39;7.00;99.90
2757;DHT22;1386;50.862;6.494;2024-03-07T00:29:20;7.00;99.90
2757;DHT22;1386;50.862;6.494;2024-03-07T00:31:59;7.00;99.90
2757;DHT22;1386;50.862;6.494;2024-03-07T00:34:37;6.90;99.90
2757;DHT22;1386;50.862;6.494;2024-03-07T00:37:13;6.90;99.90
2757;DHT22;1386;50.862;6.494;2024-03-07T00:39:50;6.90;99.90
2757;DHT22;1386;50.862;6.494;2024-03-07T00:42:33;6.90;99.90
2757;DHT22;1386;50.862;6.494;2024-03-07T00:45:20;6.90;99.90
2757;DHT22;1386;50.862;6.494;2024-03-07T00:48:00;6.80;99.90
2757;DHT22;1386;50.862;6.494;2024-03-07T00:50:32;6.80;99.90
2757;DHT22;1386;50.862;6.494;2024-03-07T00:53:07;6.70;99.90
2757;DHT22;1386;50.862;6.494;2024-03-07T00:55:38;6.70;99.90
2757;DHT22;1386;50.862;6.494;2024-03-07T00:58:14;6.60;99.90
2757;DHT22;1386;50.862;6.494;2024-03-07T01:00:42;6.60;99.90
2757;DHT22;1386;50.862;6.494;2024-03-07T01:03:10;6.50;99.90
2757;DHT22;1386;50.862;6.494;2024-03-07T01:05:39;6.50;99.90
2757;DHT22;1386;50.862;6.494;2024-03-07T01:08:06;6.50;99.90
2757;DHT22;1386;50.862;6.494;2024-03-07T01:10:36;6.40;99.90
2757;DHT22;1386;50.862;6.494;2024-03-07T01:13:07;6.40;99.90
2757;DHT22;1386;50.862;6.494;2024-03-07T01:15:45;6.40;99.90
2757;DHT22;1386;50.862;6.494;2024-03-07T01:18:26;6.30;99.90
2757;DHT22;1386;50.862;6.494;2024-03-07T01:20:53;6.30;99.90
2757;DHT22;1386;50.862;6.494;2024-03-07T01:23:25;6.20;99.90
2757;DHT22;1386;50.862;6.494;2024-03-07T01:26:19;6.20;99.90
2757;DHT22;1386;50.862;6.494;2024-03-07T01:28:50;6.20;99.90
2757;DHT22;1386;50.862;6.494;2024-03-07T01:31:23;6.20;99.90
2757;DHT22;1386;50.862;6.494;2024-03-07T01:34:00;6.20;99.90
2757;DHT22;1386;50.862;6.494;2024-03-07T01:36:31;6.10;99.90
2757;DHT22;1386;50.862;6.494;2024-03-07T01:38:58;6.10;99.90
2757;DHT22;1386;50.862;6.494;2024-03-07T01:41:32;6.10;99.90
2757;DHT22;1386;50.862;6.494;2024-03-07T01:44:00;6.10;99.90
2757;DHT22;1386;50.862;6.494;2024-03-07T01:46:29;6.00;99.90
2757;DHT22;1386;50.862;6.494;2024-03-07T01:48:58;6.00;99.90
2757;DHT22;1386;50.862;6.494;2024-03-07T01:51:28;6.00;99.90
2757;DHT22;1386;50.862;6.494;2024-03-07T01:54:00;6.00;99.90
2757;DHT22;1386;50.862;6.494;2024-03-07T01:56:30;5.90;99.90
2757;DHT22;1386;50.862;6.494;2024-03-07T01:59:07;5.90;99.90
2757;DHT22;1386;50.862;6.494;2024-03-07T02:01:35;5.90;99.90
2757;DHT22;1386;50.862;6.494;2024-03-07T02:04:07;5.90;99.90
2757;DHT22;1386;50.862;6.494;2024-03-07T02:06:38;5.80;99.90
2757;DHT22;1386;50.862;6.494;2024-03-07T02:09:10;5.80;99.90
2757;DHT22;1386;50.862;6.494;2024-03-07T02:11:42;5.80;99.90
2757;DHT22;1386;50.862;6.494;2024-03-07T02:14:18;5.80;99.90
2757;DHT22;1386;50.862;6.494;2024-03-07T02:16:50;5.80;99.90
2757;DHT22;1386;50.862;6.494;2024-03-07T02:19:24;5.80;99.90
2757;DHT22;1386;50.862;6.494;2024-03-07T02:22:02;5.80;99.90
2757;DHT22;1386;50.862;6.494;2024-03-07T02:24:35;5.80;99.90
2757;DHT22;1386;50.862;6.494;2024-03-07T02:27:08;5.80;99.90
2757;DHT22;1386;50.862;6.494;2024-03-07T02:29:49;5.70;99.90
2757;DHT22;1386;50.862;6.494;2024-03-07T02:32:27;5.70;99.90
2757;DHT22;1386;50.862;6.494;2024-03-07T02:35:04;5.70;99.90
2757;DHT22;1386;50.862;6.494;2024-03-07T02:37:40;5.70;99.90
2757;DHT22;1386;50.862;6.494;2024-03-07T02:40:15;5.70;99.90
2757;DHT22;1386;50.862;6.494;2024-03-07T02:42:54;5.70;99.90
2757;DHT22;1386;50.862;6.494;2024-03-07T02:45:24;5.60;99.90
2757;DHT22;1386;50.862;6.494;2024-03-07T02:48:05;5.70;99.90
2757;DHT22;1386;50.862;6.494;2024-03-07T02:50:43;5.60;99.90
2757;DHT22;1386;50.862;6.494;2024-03-07T02:53:27;5.60;99.90
2757;DHT22;1386;50.862;6.494;2024-03-07T02:55:58;5.60;99.90
2757;DHT22;1386;50.862;6.494;2024-03-07T02:58:46;5.60;99.90
2757;DHT22;1386;50.862;6.494;2024-03-07T03:01:20;5.60;99.90
2757;DHT22;1386;50.862;6.494;2024-03-07T03:04:04;5.60;99.90
2757;DHT22;1386;50.862;6.494;2024-03-07T03:06:34;5.60;99.90
2757;DHT22;1386;50.862;6.494;2024-03-07T03:09:08;5.50;99.90
2757;DHT22;1386;50.862;6.494;2024-03-07T03:11:55;5.50;99.90
2757;DHT22;1386;50.862;6.494;2024-03-07T03:14:31;5.50;99.90
2757;DHT22;1386;50.862;6.494;2024-03-07T03:17:02;5.50;99.90
2757;DHT22;1386;50.862;6.494;2024-03-07T03:19:41;5.40;99.90
2757;DHT22;1386;50.862;6.494;2024-03-07T03:22:29;5.40;99.90
2757;DHT22;1386;50.862;6.494;2024-03-07T03:25:04;5.30;99.90
2757;DHT22;1386;50.862;6.494;2024-03-07T03:27:48;5.30;99.90
2757;DHT22;1386;50.862;6.494;2024-03-07T03:30:36;5.30;99.90
2757;DHT22;1386;50.862;6.494;2024-03-07T03:33:08;5.30;99.90
2757;DHT22;1386;50.862;6.494;2024-03-07T03:35:54;5.30;99.90
2757;DHT22;1386;50.862;6.494;2024-03-07T03:38:28;5.20;99.90
2757;DHT22;1386;50.862;6.494;2024-03-07T03:41:02;5.20;99.90
2757;DHT22;1386;50.862;6.494;2024-03-07T03:43:32;5.10;99.90
2757;DHT22;1386;50.862;6.494;2024-03-07T03:46:02;5.10;99.90
2757;DHT22;1386;50.862;6.494;2024-03-07T03:48:30;5.10;99.90
2757;DHT22;1386;50.862;6.494;2024-03-07T03:50:56;5.10;99.90
2757;DHT22;1386;50.862;6.494;2024-03-07T03:53:24;5.00;99.90
2757;DHT22;1386;50.862;6.494;2024-03-07T03:55:56;5.00;99.90
2757;DHT22;1386;50.862;6.494;2024-03-07T03:58:39;5.00;99.90
2757;DHT22;1386;50.862;6.494;2024-03-07T04:01:15;5.00;99.90
2757;DHT22;1386;50.862;6.494;2024-03-07T04:03:46;4.90;99.90
2757;DHT22;1386;50.862;6.494;2024-03-07T04:06:18;4.90;99.90
2757;DHT22;1386;50.862;6.494;2024-03-07T04:08:48;4.90;99.90
2757;DHT22;1386;50.862;6.494;2024-03-07T04:11:17;4.90;99.90
2757;DHT22;1386;50.862;6.494;2024-03-07T04:13:51;4.80;99.90
2757;DHT22;1386;50.862;6.494;2024-03-07T04:16:32;4.80;99.90
2757;DHT22;1386;50.862;6.494;2024-03-07T04:19:03;4.70;99.90
2757;DHT22;1386;50.862;6.494;2024-03-07T04:21:37;4.70;99.90
2757;DHT22;1386;50.862;6.494;2024-03-07T04:24:07;4.70;99.90
2757;DHT22;1386;50.862;6.494;2024-03-07T04:26:44;4.70;99.90
2757;DHT22;1386;50.862;6.494;2024-03-07T04:29:26;4.60;99.90
2757;DHT22;1386;50.862;6.494;2024-03-07T04:31:54;4.60;99.90
2757;DHT22;1386;50.862;6.494;2024-03-07T04:34:27;4.60;99.90
2757;DHT22;1386;50.862;6.494;2024-03-07T04:36:56;4.60;99.90
2757;DHT22;1386;50.862;6.494;2024-03-07T04:39:29;4.50;99.90
2757;DHT22;1386;50.862;6.494;2024-03-07T04:42:07;4.50;99.90
2757;DHT22;1386;50.862;6.494;2024-03-07T04:44:44;4.50;99.90
2757;DHT22;1386;50.862;6.494;2024-03-07T04:47:15;4.50;99.90
2757;DHT22;1386;50.862;6.494;2024-03-07T04:50:06;4.40;99.90
2757;DHT22;1386;50.862;6.494;2024-03-07T04:52:44;4.40;99.90
2757;DHT22;1386;50.862;6.494;2024-03-07T04:55:12;4.40;99.90
2757;DHT22;1386;50.862;6.494;2024-03-07T04:57:41;4.40;99.90
2757;DHT22;1386;50.862;6.494;2024-03-07T05:00:22;4.40;99.90
2757;DHT22;1386;50.862;6.494;2024-03-07T05:03:05;4.40;99.90
2757;DHT22;1386;50.862;6.494;2024-03-07T05:05:33;4.30;99.90
2757;DHT22;1386;50.862;6.494;2024-03-07T05:08:09;4.30;99.90
2757;DHT22;1386;50.862;6.494;2024-03-07T05:10:46;4.20;99.90
2757;DHT22;1386;50.862;6.494;2024-03-07T05:13:14;4.30;99.90
2757;DHT22;1386;50.862;6.494;2024-03-07T05:15:48;4.20;99.90
2757;DHT22;1386;50.862;6.494;2024-03-07T05:18:19;4.20;99.90
2757;DHT22;1386;50.862;6.494;2024-03-07T05:20:51;4.20;99.90
2757;DHT22;1386;50.862;6.494;2024-03-07T05:23:53;4.10;99.90
2757;DHT22;1386;50.862;6.494;2024-03-07T05:26:31;4.10;99.90
2757;DHT22;1386;50.862;6.494;2024-03-07T05:29:09;4.10;99.90
2757;DHT22;1386;50.862;6.494;2024-03-07T05:31:39;4.00;99.90
2757;DHT22;1386;50.862;6.494;2024-03-07T05:34:12;4.00;99.90
2757;DHT22;1386;50.862;6.494;2024-03-07T05:36:42;4.00;99.90
2757;DHT22;1386;50.862;6.494;2024-03-07T05:39:12;4.00;99.90
2757;DHT22;1386;50.862;6.494;2024-03-07T05:41:44;3.90;99.90
2757;DHT22;1386;50.862;6.494;2024-03-07T05:44:21;3.90;99.90
2757;DHT22;1386;50.862;6.494;2024-03-07T05:47:09;3.90;99.90
2757;DHT22;1386;50.862;6.494;2024-03-07T05:49:51;3.90;99.90
2757;DHT22;1386;50.862;6.494;2024-03-07T05:52:32;3.80;99.90
2757;DHT22;1386;50.862;6.494;2024-03-07T05:55:04;3.80;99.90
2757;DHT22;1386;50.862;6.494;2024-03-07T05:57:33;3.80;99.90
2757;DHT22;1386;50.862;6.494;2024-03-07T06:00:14;3.80;99.90
2757;DHT22;1386;50.862;6.494;2024-03-07T06:03:05;3.80;99.90
2757;DHT22;1386;50.862;6.494;2024-03-07T06:05:43;3.80;99.90
2757;DHT22;1386;50.862;6.494;2024-03-07T06:08:17;3.80;99.90
2757;DHT22;1386;50.862;6.494;2024-03-07T06:10:44;3.80;99.90
2757;DHT22;1386;50.862;6.494;2024-03-07T06:13:16;3.80;99.90
2757;DHT22;1386;50.862;6.494;2024-03-07T06:16:02;3.80;99.90
2757;DHT22;1386;50.862;6.494;2024-03-07T06:18:37;3.80;99.90
2757;DHT22;1386;50.862;6.494;2024-03-07T06:21:08;3.80;99.90
2757;DHT22;1386;50.862;6.494;2024-03-07T06:23:45;3.80;99.90
2757;DHT22;1386;50.862;6.494;2024-03-07T06:26:25;3.80;99.90
2757;DHT22;1386;50.862;6.494;2024-03-07T06:29:06;3.90;99.90
2757;DHT22;1386;50.862;6.494;2024-03-07T06:31:37;3.90;99.90
2757;DHT22;1386;50.862;6.494;2024-03-07T06:34:05;4.00;99.90
2757;DHT22;1386;50.862;6.494;2024-03-07T06:36:34;4.00;99.90
2757;DHT22;1386;50.862;6.494;2024-03-07T06:39:07;4.00;99.90
2757;DHT22;1386;50.862;6.494;2024-03-07T06:41:49;4.10;99.90
2757;DHT22;1386;50.862;6.494;2024-03-07T06:44:23;4.10;99.90
2757;DHT22;1386;50.862;6.494;2024-03-07T06:46:56;4.10;99.90
2757;DHT22;1386;50.862;6.494;2024-03-07T06:49:31;4.20;99.90
2757;DHT22;1386;50.862;6.494;2024-03-07T06:52:20;4.30;99.90
2757;DHT22;1386;50.862;6.494;2024-03-07T06:54:56;4.30;99.90
2757;DHT22;1386;50.862;6.494;2024-03-07T06:57:28;4.40;99.90
2757;DHT22;1386;50.862;6.494;2024-03-07T07:00:07;4.90;99.90
2757;DHT22;1386;50.862;6.494;2024-03-07T07:02:50;5.30;99.90
2757;DHT22;1386;50.862;6.494;2024-03-07T07:05:48;5.20;99.90
2757;DHT22;1386;50.862;6.494;2024-03-07T07:08:17;5.10;99.90
2757;DHT22;1386;50.862;6.494;2024-03-07T07:10:54;5.00;99.90
2757;DHT22;1386;50.862;6.494;2024-03-07T07:13:23;5.00;99.90
2757;DHT22;1386;50.862;6.494;2024-03-07T07:15:58;5.00;99.90
2757;DHT22;1386;50.862;6.494;2024-03-07T07:18:42;5.30;99.90
2757;DHT22;1386;50.862;6.494;2024-03-07T07:21:45;5.30;99.90
2757;DHT22;1386;50.862;6.494;2024-03-07T07:52:57;5.20;99.90
2757;DHT22;1386;50.862;6.494;2024-03-07T07:55:42;5.20;99.90
2757;DHT22;1386;50.862;6.494;2024-03-07T07:58:32;5.30;99.90
2757;DHT22;1386;50.862;6.494;2024-03-07T08:01:07;5.30;99.90
2757;DHT22;1386;50.862;6.494;2024-03-07T08:03:44;5.30;99.90
2757;DHT22;1386;50.862;6.494;2024-03-07T08:06:18;5.40;99.90
2757;DHT22;1386;50.862;6.494;2024-03-07T08:09:04;5.50;99.90
2757;DHT22;1386;50.862;6.494;2024-03-07T08:11:47;5.60;99.90
2757;DHT22;1386;50.862;6.494;2024-03-07T08:14:33;5.70;99.90
2757;DHT22;1386;50.862;6.494;2024-03-07T08:17:05;5.70;99.90
2757;DHT22;1386;50.862;6.494;2024-03-07T08:19:46;5.70;99.90
2757;DHT22;1386;50.862;6.494;2024-03-07T08:22:17;5.80;99.90
2757;DHT22;1386;50.862;6.494;2024-03-07T08:25:01;5.90;99.90
2757;DHT22;1386;50.862;6.494;2024-03-07T08:27:38;5.90;99.90
2757;DHT22;1386;50.862;6.494;2024-03-07T08:30:15;6.00;99.90
2757;DHT22;1386;50.862;6.494;2024-03-07T08:32:53;6.10;99.90
2757;DHT22;1386;50.862;6.494;2024-03-07T08:35:28;6.10;99.90
2757;DHT22;1386;50.862;6.494;2024-03-07T08:38:13;6.10;99.90
2757;DHT22;1386;50.862;6.494;2024-03-07T08:40:44;6.60;99.90
2757;DHT22;1386;50.862;6.494;2024-03-07T08:43:11;7.00;99.90
2757;DHT22;1386;50.862;6.494;2024-03-07T08:45:38;7.10;99.90
2757;DHT22;1386;50.862;6.494;2024-03-07T08:48:05;6.90;99.90
2757;DHT22;1386;50.862;6.494;2024-03-07T08:50:46;6.80;99.90
2757;DHT22;1386;50.862;6.494;2024-03-07T08:53:27;6.70;99.90
2757;DHT22;1386;50.862;6.494;2024-03-07T08:56:12;6.60;99.90
2757;DHT22;1386;50.862;6.494;2024-03-07T08:58:48;6.60;99.90
2757;DHT22;1386;50.862;6.494;2024-03-07T09:01:17;6.60;99.90
2757;DHT22;1386;50.862;6.494;2024-03-07T09:03:51;6.60;99.90
2757;DHT22;1386;50.862;6.494;2024-03-07T09:06:22;6.60;99.90
2757;DHT22;1386;50.862;6.494;2024-03-07T09:08:49;6.70;99.90
2757;DHT22;1386;50.862;6.494;2024-03-07T09:11:30;6.70;99.90
2757;DHT22;1386;50.862;6.494;2024-03-07T09:14:02;6.70;99.90
2757;DHT22;1386;50.862;6.494;2024-03-07T09:16:32;6.80;99.90
2757;DHT22;1386;50.862;6.494;2024-03-07T09:19:00;6.90;99.90
2757;DHT22;1386;50.862;6.494;2024-03-07T09:21:28;7.00;99.90
2757;DHT22;1386;50.862;6.494;2024-03-07T09:24:11;7.10;99.90
2757;DHT22;1386;50.862;6.494;2024-03-07T09:26:48;7.30;99.90
2757;DHT22;1386;50.862;6.494;2024-03-07T09:29:44;7.40;99.90
2757;DHT22;1386;50.862;6.494;2024-03-07T09:32:23;7.60;99.90
2757;DHT22;1386;50.862;6.494;2024-03-07T09:35:14;7.80;99.90
2757;DHT22;1386;50.862;6.494;2024-03-07T09:38:03;8.00;99.90
2757;DHT22;1386;50.862;6.494;2024-03-07T09:43:37;8.30;99.90
2757;DHT22;1386;50.862;6.494;2024-03-07T09:46:10;8.30;99.90
2757;DHT22;1386;50.862;6.494;2024-03-07T09:48:48;8.30;99.90
2757;DHT22;1386;50.862;6.494;2024-03-07T09:51:29;8.50;99.90
2757;DHT22;1386;50.862;6.494;2024-03-07T09:54:09;8.80;99.90
2757;DHT22;1386;50.862;6.494;2024-03-07T09:56:45;8.80;99.90
2757;DHT22;1386;50.862;6.494;2024-03-07T09:59:13;8.90;99.90
2757;DHT22;1386;50.862;6.494;2024-03-07T10:01:58;8.90;99.90
2757;DHT22;1386;50.862;6.494;2024-03-07T10:04:42;9.10;99.90
2757;DHT22;1386;50.862;6.494;2024-03-07T10:07:17;9.10;99.90
2757;DHT22;1386;50.862;6.494;2024-03-07T10:09:50;9.00;99.90
2757;DHT22;1386;50.862;6.494;2024-03-07T10:12:28;8.90;99.90
2757;DHT22;1386;50.862;6.494;2024-03-07T10:15:06;8.90;99.90
2757;DHT22;1386;50.862;6.494;2024-03-07T10:17:41;9.00;99.90
2757;DHT22;1386;50.862;6.494;2024-03-07T10:20:20;9.00;99.90
2757;DHT22;1386;50.862;6.494;2024-03-07T10:22:48;9.20;99.90
2757;DHT22;1386;50.862;6.494;2024-03-07T10:25:17;9.30;99.90
2757;DHT22;1386;50.862;6.494;2024-03-07T10:27:45;9.40;99.90
2757;DHT22;1386;50.862;6.494;2024-03-07T10:30:24;9.40;99.90
2757;DHT22;1386;50.862;6.494;2024-03-07T10:32:56;9.30;99.90
2757;DHT22;1386;50.862;6.494;2024-03-07T10:35:28;9.30;99.90
2757;DHT22;1386;50.862;6.494;2024-03-07T10:38:06;9.50;99.90
2757;DHT22;1386;50.862;6.494;2024-03-07T10:40:46;9.60;99.90
2757;DHT22;1386;50.862;6.494;2024-03-07T10:43:30;9.60;99.90
2757;DHT22;1386;50.862;6.494;2024-03-07T10:46:16;9.60;99.90
2757;DHT22;1386;50.862;6.494;2024-03-07T10:48:55;9.70;99.90
2757;DHT22;1386;50.862;6.494;2024-03-07T10:51:32;9.60;99.90
2757;DHT22;1386;50.862;6.494;2024-03-07T10:54:13;9.60;99.90
2757;DHT22;1386;50.862;6.494;2024-03-07T10:56:59;9.70;99.90
2757;DHT22;1386;50.862;6.494;2024-03-07T10:59:31;9.70;99.90
2757;DHT22;1386;50.862;6.494;2024-03-07T11:02:14;9.80;99.90
2757;DHT22;1386;50.862;6.494;2024-03-07T11:04:42;9.50;99.90
2757;DHT22;1386;50.862;6.494;2024-03-07T11:07:10;9.50;99.90
2757;DHT22;1386;50.862;6.494;2024-03-07T11:09:41;9.50;99.90
2757;DHT22;1386;50.862;6.494;2024-03-07T11:12:12;9.90;99.90
2757;DHT22;1386;50.862;6.494;2024-03-07T11:14:40;10.20;99.90
2757;DHT22;1386;50.862;6.494;2024-03-07T11:17:17;9.80;99.90
2757;DHT22;1386;50.862;6.494;2024-03-07T11:19:52;9.80;99.90
2757;DHT22;1386;50.862;6.494;2024-03-07T11:22:40;9.80;99.90
2757;DHT22;1386;50.862;6.494;2024-03-07T11:25:21;9.80;99.90
2757;DHT22;1386;50.862;6.494;2024-03-07T11:28:02;9.80;99.90
2757;DHT22;1386;50.862;6.494;2024-03-07T11:30:33;9.90;99.90
2757;DHT22;1386;50.862;6.494;2024-03-07T11:33:03;10.00;99.90
2757;DHT22;1386;50.862;6.494;2024-03-07T11:35:34;9.70;99.90
2757;DHT22;1386;50.862;6.494;2024-03-07T11:38:18;9.70;99.90
2757;DHT22;1386;50.862;6.494;2024-03-07T11:41:00;9.70;99.90
2757;DHT22;1386;50.862;6.494;2024-03-07T11:43:28;10.00;99.90
2757;DHT22;1386;50.862;6.494;2024-03-07T11:45:55;10.00;99.90
2757;DHT22;1386;50.862;6.494;2024-03-07T11:48:40;10.20;99.90
2757;DHT22;1386;50.862;6.494;2024-03-07T11:51:17;10.30;99.90
2757;DHT22;1386;50.862;6.494;2024-03-07T11:53:54;10.40;99.90
2757;DHT22;1386;50.862;6.494;2024-03-07T11:56:22;10.60;99.90
2757;DHT22;1386;50.862;6.494;2024-03-07T11:58:49;10.50;99.90
2757;DHT22;1386;50.862;6.494;2024-03-07T12:01:38;10.50;99.90
2757;DHT22;1386;50.862;6.494;2024-03-07T12:04:15;10.40;99.90
2757;DHT22;1386;50.862;6.494;2024-03-07T12:06:50;10.50;99.90
2757;DHT22;1386;50.862;6.494;2024-03-07T12:09:17;10.60;99.90
2757;DHT22;1386;50.862;6.494;2024-03-07T12:11:49;10.50;99.90
2757;DHT22;1386;50.862;6.494;2024-03-07T12:14:18;10.40;99.90
2757;DHT22;1386;50.862;6.494;2024-03-07T12:16:45;10.40;99.90
2757;DHT22;1386;50.862;6.494;2024-03-07T12:19:13;10.40;99.90
2757;DHT22;1386;50.862;6.494;2024-03-07T12:21:43;10.50;99.90
2757;DHT22;1386;50.862;6.494;2024-03-07T12:24:14;10.40;99.90
2757;DHT22;1386;50.862;6.494;2024-03-07T12:26:41;10.50;99.90
2757;DHT22;1386;50.862;6.494;2024-03-07T12:29:09;10.50;99.90
2757;DHT22;1386;50.862;6.494;2024-03-07T12:31:37;10.70;99.90
2757;DHT22;1386;50.862;6.494;2024-03-07T12:34:04;10.80;99.90
2757;DHT22;1386;50.862;6.494;2024-03-07T12:36:33;10.70;99.90
2757;DHT22;1386;50.862;6.494;2024-03-07T12:39:21;10.70;99.90
2757;DHT22;1386;50.862;6.494;2024-03-07T12:41:51;10.80;99.90
2757;DHT22;1386;50.862;6.494;2024-03-07T12:44:19;10.90;99.90
2757;DHT22;1386;50.862;6.494;2024-03-07T12:46:46;10.80;99.90
2757;DHT22;1386;50.862;6.494;2024-03-07T12:49:14;10.70;99.90
2757;DHT22;1386;50.862;6.494;2024-03-07T12:51:43;10.60;99.90
2757;DHT22;1386;50.862;6.494;2024-03-07T12:54:10;10.50;99.90
2757;DHT22;1386;50.862;6.494;2024-03-07T12:56:37;10.40;99.90
2757;DHT22;1386;50.862;6.494;2024-03-07T13:06:52;10.20;99.90
2757;DHT22;1386;50.862;6.494;2024-03-07T13:09:19;10.20;99.90
2757;DHT22;1386;50.862;6.494;2024-03-07T13:11:52;10.20;99.90
2757;DHT22;1386;50.862;6.494;2024-03-07T13:14:19;10.10;99.90
2757;DHT22;1386;50.862;6.494;2024-03-07T13:16:46;10.10;99.90
2757;DHT22;1386;50.862;6.494;2024-03-07T13:19:13;10.20;99.90
2757;DHT22;1386;50.862;6.494;2024-03-07T13:21:41;10.20;99.90
2757;DHT22;1386;50.862;6.494;2024-03-07T13:24:09;10.30;99.90
2757;DHT22;1386;50.862;6.494;2024-03-07T13:26:36;10.40;99.90
2757;DHT22;1386;50.862;6.494;2024-03-07T13:29:03;10.30;99.90
2757;DHT22;1386;50.862;6.494;2024-03-07T13:31:30;10.40;99.90
2757;DHT22;1386;50.862;6.494;2024-03-07T13:33:58;10.40;99.90
2757;DHT22;1386;50.862;6.494;2024-03-07T13:36:27;10.40;99.90
2757;DHT22;1386;50.862;6.494;2024-03-07T13:38:54;10.40;99.90
2757;DHT22;1386;50.862;6.494;2024-03-07T13:41:22;10.30;99.90
2757;DHT22;1386;50.862;6.494;2024-03-07T13:43:51;10.30;99.90
2757;DHT22;1386;50.862;6.494;2024-03-07T13:46:19;10.30;99.90
2757;DHT22;1386;50.862;6.494;2024-03-07T13:48:47;10.30;99.90
2757;DHT22;1386;50.862;6.494;2024-03-07T13:51:13;10.30;99.90
2757;DHT22;1386;50.862;6.494;2024-03-07T13:53:42;10.20;99.90
2757;DHT22;1386;50.862;6.494;2024-03-07T13:56:44;10.30;99.90
2757;DHT22;1386;50.862;6.494;2024-03-07T14:02:24;10.20;99.90
2757;DHT22;1386;50.862;6.494;2024-03-07T14:05:26;10.20;99.90
2757;DHT22;1386;50.862;6.494;2024-03-07T14:08:15;10.10;99.90
2757;DHT22;1386;50.862;6.494;2024-03-07T14:11:19;10.10;99.90
2757;DHT22;1386;50.862;6.494;2024-03-07T14:14:12;10.20;99.90
2757;DHT22;1386;50.862;6.494;2024-03-07T14:17:11;10.10;99.90
2757;DHT22;1386;50.862;6.494;2024-03-07T14:20:13;10.20;99.90
2757;DHT22;1386;50.862;6.494;2024-03-07T14:23:08;10.10;99.90
2757;DHT22;1386;50.862;6.494;2024-03-07T14:28:53;10.10;99.90
2757;DHT22;1386;50.862;6.494;2024-03-07T14:31:26;10.10;99.90
2757;DHT22;1386;50.862;6.494;2024-03-07T14:34:04;10.10;99.90
2757;DHT22;1386;50.862;6.494;2024-03-07T14:36:37;10.10;99.90
2757;DHT22;1386;50.862;6.494;2024-03-07T14:39:05;10.10;99.90
2757;DHT22;1386;50.862;6.494;2024-03-07T14:41:49;10.20;99.90
2757;DHT22;1386;50.862;6.494;2024-03-07T14:44:18;10.20;99.90
2757;DHT22;1386;50.862;6.494;2024-03-07T14:47:03;10.10;99.90
2757;DHT22;1386;50.862;6.494;2024-03-07T14:49:32;10.00;99.90
2757;DHT22;1386;50.862;6.494;2024-03-07T14:51:59;10.00;99.90
2757;DHT22;1386;50.862;6.494;2024-03-07T14:54:27;10.00;99.90
2757;DHT22;1386;50.862;6.494;2024-03-07T14:56:54;10.00;99.90
2757;DHT22;1386;50.862;6.494;2024-03-07T14:59:21;9.90;99.90
2757;DHT22;1386;50.862;6.494;2024-03-07T15:01:50;9.90;99.90
2757;DHT22;1386;50.862;6.494;2024-03-07T15:04:16;9.80;99.90
2757;DHT22;1386;50.862;6.494;2024-03-07T15:06:47;9.80;99.90
2757;DHT22;1386;50.862;6.494;2024-03-07T15:09:13;9.70;99.90
2757;DHT22;1386;50.862;6.494;2024-03-07T15:11:40;9.70;99.90
2757;DHT22;1386;50.862;6.494;2024-03-07T15:14:08;9.70;99.90
2757;DHT22;1386;50.862;6.494;2024-03-07T15:16:35;9.70;99.90
2757;DHT22;1386;50.862;6.494;2024-03-07T15:19:10;9.70;99.90
2757;DHT22;1386;50.862;6.494;2024-03-07T15:21:40;9.70;99.90
2757;DHT22;1386;50.862;6.494;2024-03-07T15:24:15;9.70;99.90
2757;DHT22;1386;50.862;6.494;2024-03-07T15:26:42;9.70;99.90
2757;DHT22;1386;50.862;6.494;2024-03-07T15:29:09;9.70;99.90
2757;DHT22;1386;50.862;6.494;2024-03-07T15:31:36;9.70;99.90
2757;DHT22;1386;50.862;6.494;2024-03-07T15:34:07;9.70;99.90
2757;DHT22;1386;50.862;6.494;2024-03-07T15:36:38;9.80;99.90
2757;DHT22;1386;50.862;6.494;2024-03-07T15:39:05;9.70;99.90
2757;DHT22;1386;50.862;6.494;2024-03-07T15:41:45;9.70;99.90
2757;DHT22;1386;50.862;6.494;2024-03-07T15:44:13;9.70;99.90
2757;DHT22;1386;50.862;6.494;2024-03-07T15:46:42;9.70;99.90
2757;DHT22;1386;50.862;6.494;2024-03-07T15:49:16;9.70;99.90
2757;DHT22;1386;50.862;6.494;2024-03-07T15:51:43;9.70;99.90
2757;DHT22;1386;50.862;6.494;2024-03-07T15:54:43;9.70;99.90
2757;DHT22;1386;50.862;6.494;2024-03-07T15:57:18;9.60;99.90
2757;DHT22;1386;50.862;6.494;2024-03-07T15:59:48;9.60;99.90
2757;DHT22;1386;50.862;6.494;2024-03-07T16:02:15;9.60;99.90
2757;DHT22;1386;50.862;6.494;2024-03-07T16:04:46;9.60;99.90
2757;DHT22;1386;50.862;6.494;2024-03-07T16:07:13;9.60;99.90
2757;DHT22;1386;50.862;6.494;2024-03-07T16:09:46;9.50;99.90
2757;DHT22;1386;50.862;6.494;2024-03-07T16:12:13;9.50;99.90
2757;DHT22;1386;50.862;6.494;2024-03-07T16:14:43;9.50;99.90
2757;DHT22;1386;50.862;6.494;2024-03-07T16:17:13;9.40;99.90
2757;DHT22;1386;50.862;6.494;2024-03-07T16:19:46;9.40;99.90
2757;DHT22;1386;50.862;6.494;2024-03-07T16:22:14;9.40;99.90
2757;DHT22;1386;50.862;6.494;2024-03-07T16:24:50;9.40;99.90
2757;DHT22;1386;50.862;6.494;2024-03-07T16:27:17;9.30;99.90
2757;DHT22;1386;50.862;6.494;2024-03-07T16:29:44;9.30;99.90
2757;DHT22;1386;50.862;6.494;2024-03-07T16:32:14;9.30;99.90
2757;DHT22;1386;50.862;6.494;2024-03-07T16:34:41;9.30;99.90
2757;DHT22;1386;50.862;6.494;2024-03-07T16:37:10;9.20;99.90
2757;DHT22;1386;50.862;6.494;2024-03-07T16:39:38;9.20;99.90
2757;DHT22;1386;50.862;6.494;2024-03-07T16:42:08;9.20;99.90
2757;DHT22;1386;50.862;6.494;2024-03-07T16:44:36;9.20;99.90
2757;DHT22;1386;50.862;6.494;2024-03-07T16:47:04;9.10;99.90
2757;DHT22;1386;50.862;6.494;2024-03-07T16:49:38;9.10;99.90
2757;DHT22;1386;50.862;6.494;2024-03-07T16:52:06;9.00;99.90
2757;DHT22;1386;50.862;6.494;2024-03-07T16:54:38;9.00;99.90
2757;DHT22;1386;50.862;6.494;2024-03-07T16:57:05;9.00;99.90
2757;DHT22;1386;50.862;6.494;2024-03-07T16:59:40;9.00;99.90
2757;DHT22;1386;50.862;6.494;2024-03-07T17:02:10;9.00;99.90
2757;DHT22;1386;50.862;6.494;2024-03-07T17:04:37;8.90;99.90
2757;DHT22;1386;50.862;6.494;2024-03-07T17:07:04;8.90;99.90
2757;DHT22;1386;50.862;6.494;2024-03-07T17:09:35;8.90;99.90
2757;DHT22;1386;50.862;6.494;2024-03-07T17:12:04;8.90;99.90
2757;DHT22;1386;50.862;6.494;2024-03-07T17:14:35;8.90;99.90
2757;DHT22;1386;50.862;6.494;2024-03-07T17:17:09;8.80;99.90
2757;DHT22;1386;50.862;6.494;2024-03-07T17:19:39;8.90;99.90
2757;DHT22;1386;50.862;6.494;2024-03-07T17:22:05;8.80;99.90
2757;DHT22;1386;50.862;6.494;2024-03-07T17:24:33;8.80;99.90
2757;DHT22;1386;50.862;6.494;2024-03-07T17:27:16;8.80;99.90
2757;DHT22;1386;50.862;6.494;2024-03-07T17:29:43;8.80;99.90
2757;DHT22;1386;50.862;6.494;2024-03-07T17:32:11;8.80;99.90
2757;DHT22;1386;50.862;6.494;2024-03-07T17:34:39;8.80;99.90
2757;DHT22;1386;50.862;6.494;2024-03-07T17:37:08;8.80;99.90
2757;DHT22;1386;50.862;6.494;2024-03-07T17:39:41;8.70;99.90
2757;DHT22;1386;50.862;6.494;2024-03-07T17:42:09;8.70;99.90
2757;DHT22;1386;50.862;6.494;2024-03-07T17:44:44;8.70;99.90
2757;DHT22;1386;50.862;6.494;2024-03-07T17:47:13;8.70;99.90